createdAt,value
2018-05-04T00:01:19.952Z,8.20
2018-05-04T00:03:48.328Z,8.37
2018-05-04T00:06:16.737Z,7.83
2018-05-04T00:08:44.352Z,8.57
2018-05-04T00:11:11.939Z,8.80
2018-05-04T00:13:40.318Z,8.52
2018-05-04T00:16:08.684Z,7.70
2018-05-04T00:18:36.346Z,7.30
2018-05-04T00:21:03.954Z,7.37
2018-05-04T00:23:31.523Z,7.10
2018-05-04T00:25:59.131Z,7.43
2018-05-04T00:28:26.850Z,6.97
2018-05-04T00:30:54.492Z,7.27
2018-05-04T00:33:22.101Z,7.00
2018-05-04T00:35:49.728Z,7.03
2018-05-04T00:38:17.322Z,6.63
2018-05-04T00:40:44.982Z,6.37
2018-05-04T00:43:12.796Z,6.67
2018-05-04T00:45:40.346Z,6.40
2018-05-04T00:48:07.963Z,5.97
2018-05-04T00:50:35.570Z,5.87
2018-05-04T00:53:03.161Z,6.73
2018-05-04T00:55:30.764Z,5.80
2018-05-04T00:57:58.370Z,6.57
2018-05-04T01:00:25.984Z,6.10
2018-05-04T01:02:53.553Z,6.03
2018-05-04T01:05:21.908Z,5.87
2018-05-04T01:07:49.572Z,5.90
2018-05-04T01:10:17.173Z,5.90
2018-05-04T01:12:44.747Z,6.13
2018-05-04T01:15:12.388Z,6.00
2018-05-04T01:17:40.012Z,5.90
2018-05-04T01:20:07.602Z,6.07
2018-05-04T01:22:35.996Z,6.13
2018-05-04T01:25:03.624Z,5.53
2018-05-04T01:27:31.260Z,5.87
2018-05-04T01:29:58.858Z,5.50
2018-05-04T01:32:27.225Z,5.60
2018-05-04T01:34:57.807Z,5.70
2018-05-04T01:37:25.429Z,5.50
2018-05-04T01:39:53.770Z,5.03
2018-05-04T01:42:22.932Z,5.82
2018-05-04T01:44:50.506Z,5.13
2018-05-04T01:47:18.126Z,5.00
2018-05-04T01:49:46.674Z,4.97
2018-05-04T01:52:14.274Z,4.43
2018-05-04T01:54:42.670Z,4.60
2018-05-04T01:57:10.273Z,4.70
2018-05-04T01:59:37.881Z,4.47
2018-05-04T02:02:06.255Z,4.47
2018-05-04T02:04:34.621Z,5.10
2018-05-04T02:07:02.971Z,4.20
2018-05-04T02:09:30.580Z,4.37
2018-05-04T02:11:58.957Z,4.27
2018-05-04T02:14:26.577Z,4.10
2018-05-04T02:16:54.147Z,4.40
2018-05-04T02:19:28.613Z,3.93
2018-05-04T02:21:56.233Z,3.90
2018-05-04T02:24:23.831Z,4.30
2018-05-04T02:26:51.447Z,4.13
2018-05-04T02:29:19.087Z,3.90
2018-05-04T02:31:46.693Z,3.90
2018-05-04T02:34:15.039Z,3.80
2018-05-04T02:36:42.696Z,4.00
2018-05-04T02:39:10.312Z,3.70
2018-05-04T02:41:37.928Z,3.57
2018-05-04T02:44:05.528Z,3.93
2018-05-04T02:46:33.154Z,3.90
2018-05-04T02:49:01.496Z,4.00
2018-05-04T02:51:29.132Z,3.80
2018-05-04T02:53:56.755Z,4.10
2018-05-04T02:56:24.367Z,3.40
2018-05-04T02:58:52.125Z,3.33
2018-05-04T03:01:19.753Z,3.63
2018-05-04T03:03:48.113Z,3.57
2018-05-04T03:06:15.724Z,3.90
2018-05-04T03:08:43.339Z,3.47
2018-05-04T03:11:10.949Z,3.20
2018-05-04T03:13:38.566Z,3.27
2018-05-04T03:16:06.177Z,3.20
2018-05-04T03:18:33.783Z,3.40
2018-05-04T03:21:02.901Z,3.10
2018-05-04T03:23:31.284Z,3.90
2018-05-04T03:25:59.630Z,3.00
2018-05-04T03:28:27.265Z,3.17
2018-05-04T03:30:54.902Z,3.20
2018-05-04T03:33:22.588Z,3.30
2018-05-04T03:35:50.178Z,3.00
2018-05-04T03:38:17.777Z,3.40
2018-05-04T03:40:45.401Z,3.60
2018-05-04T03:43:13.036Z,3.47
2018-05-04T03:45:40.642Z,3.37
2018-05-04T03:48:09.023Z,3.20
2018-05-04T03:50:37.367Z,3.13
2018-05-04T03:53:04.979Z,2.93
2018-05-04T03:55:32.619Z,3.37
2018-05-04T04:01:18.777Z,3.40
2018-05-04T04:03:58.296Z,3.40
2018-05-04T04:06:26.590Z,3.30
2018-05-04T04:08:54.120Z,3.10
2018-05-04T04:11:22.428Z,3.40
2018-05-04T04:13:49.957Z,3.43
2018-05-04T04:16:18.267Z,3.60
2018-05-04T04:18:45.796Z,3.33
2018-05-04T04:21:13.374Z,3.30
2018-05-04T04:23:40.904Z,3.33
2018-05-04T04:26:08.425Z,3.53
2018-05-04T04:28:35.934Z,3.30
2018-05-04T04:31:04.255Z,3.20
2018-05-04T04:33:31.794Z,3.43
2018-05-04T04:35:59.358Z,3.50
2018-05-04T04:38:26.866Z,3.27
2018-05-04T04:40:54.374Z,3.63
2018-05-04T04:43:21.915Z,3.60
2018-05-04T04:45:50.196Z,3.80
2018-05-04T04:48:18.512Z,3.90
2018-05-04T04:50:46.564Z,3.70
2018-05-04T04:53:19.324Z,3.63
2018-05-04T04:55:47.611Z,4.20
2018-05-04T04:58:15.595Z,4.40
2018-05-04T05:00:43.189Z,3.87
2018-05-04T05:03:10.668Z,4.07
2018-05-04T05:05:38.960Z,4.07
2018-05-04T05:08:07.234Z,4.03
2018-05-04T05:10:35.508Z,4.27
2018-05-04T05:13:03.055Z,4.17
2018-05-04T05:15:34.215Z,3.80
2018-05-04T05:18:02.825Z,4.20
2018-05-04T05:20:30.367Z,4.27
2018-05-04T05:22:57.954Z,4.47
2018-05-04T05:25:25.493Z,4.67
2018-05-04T05:27:53.029Z,4.80
2018-05-04T05:30:21.891Z,5.30
2018-05-04T05:32:51.117Z,5.10
2018-05-04T05:35:19.422Z,4.43
2018-05-04T05:37:52.624Z,5.93
2018-05-04T05:40:20.313Z,4.80
2018-05-04T05:42:47.858Z,4.60
2018-05-04T05:45:15.533Z,5.03
2018-05-04T05:47:43.132Z,5.57
2018-05-04T05:50:10.784Z,5.23
2018-05-04T05:52:39.900Z,5.30
2018-05-04T05:55:07.525Z,5.23
2018-05-04T05:57:35.348Z,5.47
2018-05-04T06:00:02.945Z,5.20
2018-05-04T06:02:30.551Z,5.50
2018-05-04T06:04:59.131Z,5.87
2018-05-04T06:07:26.677Z,5.60
2018-05-04T06:09:55.057Z,5.57
2018-05-04T06:12:23.417Z,5.43
2018-05-04T06:14:51.054Z,5.70
2018-05-04T06:17:18.691Z,5.43
2018-05-04T06:19:46.299Z,5.83
2018-05-04T06:22:13.921Z,5.60
2018-05-04T06:24:41.527Z,5.17
2018-05-04T06:27:09.161Z,5.47
2018-05-04T06:29:36.917Z,5.90
2018-05-04T06:32:04.534Z,5.60
2018-05-04T06:34:32.889Z,6.03
2018-05-04T06:37:00.728Z,6.53
2018-05-04T06:39:28.373Z,5.50
2018-05-04T06:41:56.026Z,6.77
2018-05-04T06:44:23.641Z,8.40
2018-05-04T06:46:51.251Z,7.70
2018-05-04T06:49:18.817Z,9.13
2018-05-04T06:51:46.473Z,7.27
2018-05-04T06:54:14.051Z,8.63
2018-05-04T06:56:41.656Z,7.80
2018-05-04T06:59:10.057Z,7.70
2018-05-04T07:01:37.659Z,7.10
2018-05-04T07:04:05.518Z,7.97
2018-05-04T07:06:33.123Z,8.23
2018-05-04T07:09:01.631Z,7.90
2018-05-04T07:11:29.207Z,7.90
2018-05-04T07:13:56.805Z,7.23
2018-05-04T07:16:25.907Z,6.97
2018-05-04T07:18:53.506Z,6.90
2018-05-04T07:21:21.143Z,7.57
2018-05-04T07:23:49.542Z,7.83
2018-05-04T07:26:17.243Z,7.67
2018-05-04T07:28:44.977Z,6.43
2018-05-04T07:31:13.326Z,7.83
2018-05-04T07:33:41.708Z,8.40
2018-05-04T07:36:09.316Z,7.80
2018-05-04T07:38:36.904Z,7.10
2018-05-04T07:41:04.546Z,7.20
2018-05-04T07:43:32.191Z,7.30
2018-05-04T07:45:59.864Z,7.40
2018-05-04T07:48:28.020Z,6.40
2018-05-04T07:50:56.432Z,6.40
2018-05-04T07:53:23.991Z,6.27
2018-05-04T07:55:51.584Z,6.07
2018-05-04T07:58:19.969Z,6.00
2018-05-04T08:00:47.564Z,5.87
2018-05-04T08:03:15.188Z,6.20
2018-05-04T08:05:43.592Z,6.90
2018-05-04T08:08:11.239Z,5.87
2018-05-04T08:10:39.642Z,6.10
2018-05-04T08:13:07.272Z,6.77
2018-05-04T08:15:34.861Z,6.27
2018-05-04T08:18:02.473Z,6.33
2018-05-04T08:20:30.080Z,6.20
2018-05-04T08:22:57.700Z,6.70
2018-05-04T08:25:25.325Z,6.63
2018-05-04T08:27:52.982Z,6.13
2018-05-04T08:30:20.587Z,6.20
2018-05-04T08:32:48.207Z,7.03
2018-05-04T08:35:15.901Z,7.15
2018-05-04T08:37:43.491Z,7.93
2018-05-04T08:40:11.875Z,6.87
2018-05-04T08:42:39.623Z,6.17
2018-05-04T08:45:08.031Z,6.73
2018-05-04T08:47:35.911Z,7.00
2018-05-04T08:50:03.504Z,6.63
2018-05-04T08:52:31.112Z,6.30
2018-05-04T08:54:58.754Z,6.30
2018-05-04T08:57:27.218Z,6.30
2018-05-04T08:59:54.805Z,7.30
2018-05-04T09:02:22.406Z,6.67
2018-05-04T09:04:50.054Z,6.07
2018-05-04T09:07:17.689Z,6.37
2018-05-04T09:09:45.273Z,5.83
2018-05-04T09:12:14.171Z,5.70
2018-05-04T09:14:41.754Z,6.40
2018-05-04T09:17:09.363Z,5.30
2018-05-04T09:19:37.012Z,5.07
2018-05-04T09:22:05.430Z,5.83
2018-05-04T09:24:33.034Z,4.97
2018-05-04T09:27:00.646Z,6.00
2018-05-04T09:29:28.332Z,5.90
2018-05-04T09:31:55.992Z,6.03
2018-05-04T09:34:23.640Z,6.33
2018-05-04T09:36:53.345Z,6.50
2018-05-04T09:39:21.128Z,6.90
2018-05-04T09:41:48.703Z,5.87
2018-05-04T09:44:16.310Z,6.07
2018-05-04T09:46:43.940Z,6.57
2018-05-04T09:49:11.608Z,5.87
2018-05-04T09:51:39.159Z,6.77
2018-05-04T09:54:07.512Z,6.00
2018-05-04T09:56:35.183Z,5.40
2018-05-04T09:59:02.804Z,6.30
2018-05-04T10:01:30.476Z,6.23
2018-05-04T10:03:58.075Z,5.97
2018-05-04T10:06:26.397Z,6.10
2018-05-04T10:08:54.002Z,5.67
2018-05-04T10:11:21.625Z,5.90
2018-05-04T10:13:50.429Z,6.57
2018-05-04T10:16:18.033Z,6.23
2018-05-04T10:18:45.582Z,5.87
2018-05-04T10:21:13.178Z,5.87
2018-05-04T10:23:40.800Z,6.20
2018-05-04T10:26:09.937Z,6.68
2018-05-04T10:28:37.555Z,7.30
2018-05-04T10:31:05.968Z,7.10
2018-05-04T10:33:33.578Z,6.37
2018-05-04T10:36:02.774Z,6.40
2018-05-04T10:38:30.387Z,6.67
2018-05-04T10:40:58.020Z,7.10
2018-05-04T10:43:25.633Z,6.70
2018-05-04T10:45:53.264Z,6.40
2018-05-04T10:48:21.637Z,6.83
2018-05-04T10:50:50.150Z,5.97
2018-05-04T10:53:17.751Z,7.60
2018-05-04T10:55:45.331Z,6.50
2018-05-04T10:58:13.892Z,6.23
2018-05-04T11:00:41.753Z,5.90
2018-05-04T11:03:09.485Z,6.83
2018-05-04T11:05:37.329Z,6.20
2018-05-04T11:08:05.695Z,6.20
2018-05-04T11:10:33.338Z,5.90
2018-05-04T11:13:01.279Z,5.90
2018-05-04T11:15:29.837Z,5.27
2018-05-04T11:17:58.002Z,6.70
2018-05-04T11:20:26.254Z,5.93
2018-05-04T11:22:54.929Z,6.53
2018-05-04T11:25:24.423Z,5.87
2018-05-04T11:27:52.092Z,5.93
2018-05-04T11:30:19.938Z,5.83
2018-05-04T11:32:47.565Z,6.37
2018-05-04T11:35:15.309Z,5.67
2018-05-04T11:37:43.677Z,5.37
2018-05-04T11:40:11.328Z,4.90
2018-05-04T11:42:43.555Z,5.30
2018-05-04T11:45:11.155Z,5.47
2018-05-04T11:47:38.764Z,5.20
2018-05-04T11:50:06.372Z,5.60
2018-05-04T11:52:34.052Z,5.23
2018-05-04T11:55:01.675Z,4.70
2018-05-04T11:57:29.344Z,4.80
2018-05-04T11:59:56.963Z,4.60
2018-05-04T12:02:24.629Z,4.87
2018-05-04T12:04:52.275Z,4.45
2018-05-04T12:07:21.079Z,3.87
2018-05-04T12:09:48.731Z,4.12
2018-05-04T12:12:16.436Z,4.22
2018-05-04T12:14:44.035Z,4.93
2018-05-04T12:17:11.632Z,5.00
2018-05-04T12:19:39.261Z,4.85
2018-05-04T12:22:07.672Z,4.62
2018-05-04T12:24:35.301Z,4.70
2018-05-04T12:27:02.919Z,4.62
2018-05-04T12:29:30.587Z,4.00
2018-05-04T12:31:58.257Z,4.78
2018-05-04T12:34:27.344Z,4.10
2018-05-04T12:36:55.614Z,4.80
2018-05-04T12:39:23.218Z,4.37
2018-05-04T12:41:50.846Z,4.40
2018-05-04T12:44:18.430Z,4.75
2018-05-04T12:46:46.170Z,4.40
2018-05-04T12:49:13.846Z,4.00
2018-05-04T12:51:41.452Z,4.70
2018-05-04T12:54:09.856Z,4.40
2018-05-04T12:56:37.461Z,4.45
2018-05-04T12:59:05.101Z,4.72
2018-05-04T13:01:32.715Z,4.50
2018-05-04T13:04:01.144Z,5.13
2018-05-04T13:06:28.719Z,4.30
2018-05-04T13:08:56.277Z,4.28
2018-05-04T13:11:23.947Z,4.70
2018-05-04T13:13:53.034Z,4.40
2018-05-04T13:16:20.657Z,4.80
2018-05-04T13:18:48.850Z,4.53
2018-05-04T13:21:16.603Z,5.00
2018-05-04T13:23:44.268Z,4.30
2018-05-04T13:26:12.765Z,4.70
2018-05-04T13:28:40.549Z,4.40
2018-05-04T13:31:09.716Z,4.60
2018-05-04T13:33:37.351Z,4.37
2018-05-04T13:36:05.009Z,4.63
2018-05-04T13:38:32.702Z,3.97
2018-05-04T13:41:00.278Z,4.33
2018-05-04T13:43:27.891Z,4.47
2018-05-04T13:45:55.536Z,4.12
2018-05-04T13:48:23.665Z,3.90
2018-05-04T13:50:54.562Z,4.53
2018-05-04T13:53:26.387Z,4.03
2018-05-04T13:55:54.207Z,4.30
2018-05-04T13:58:22.966Z,4.23
2018-05-04T14:00:56.081Z,4.10
2018-05-04T14:03:26.805Z,4.30
2018-05-04T14:06:00.421Z,4.10
2018-05-04T14:08:35.953Z,4.20
2018-05-04T14:11:03.592Z,3.67
2018-05-04T14:13:31.485Z,4.00
2018-05-04T14:15:59.295Z,4.12
2018-05-04T14:18:27.729Z,4.30
2018-05-04T14:20:55.591Z,3.73
2018-05-04T14:23:23.222Z,3.73
2018-05-04T14:25:50.801Z,3.70
2018-05-04T14:28:18.667Z,3.80
2018-05-04T14:30:46.388Z,4.43
2018-05-04T14:33:15.033Z,3.93
2018-05-04T14:35:42.699Z,3.70
2018-05-04T14:38:10.317Z,3.47
2018-05-04T14:40:38.031Z,3.37
2018-05-04T14:43:05.663Z,3.73
2018-05-04T14:45:33.316Z,4.10
2018-05-04T14:48:00.881Z,3.40
2018-05-04T14:50:28.493Z,4.17
2018-05-04T14:52:56.088Z,3.30
2018-05-04T14:55:23.683Z,3.27
2018-05-04T14:57:51.285Z,3.10
2018-05-04T15:00:18.932Z,3.10
2018-05-04T15:02:46.581Z,2.60
2018-05-04T15:05:14.170Z,3.30
2018-05-04T15:07:41.849Z,3.60
2018-05-04T15:10:09.494Z,3.10
2018-05-04T15:12:37.082Z,2.97
2018-05-04T15:15:04.771Z,3.20
2018-05-04T15:17:32.394Z,3.33
2018-05-04T15:20:00.045Z,3.10
2018-05-04T15:22:27.610Z,2.87
2018-05-04T15:24:56.040Z,3.10
2018-05-04T15:27:23.655Z,2.80
2018-05-04T15:29:51.990Z,3.07
2018-05-04T15:32:19.591Z,3.03
2018-05-04T15:34:47.909Z,2.90
2018-05-04T15:37:15.489Z,2.60
2018-05-04T15:39:43.118Z,2.40
2018-05-04T15:42:10.742Z,2.90
2018-05-04T15:44:38.320Z,3.10
2018-05-04T15:47:05.970Z,2.77
2018-05-04T15:49:34.360Z,2.57
2018-05-04T15:52:06.512Z,2.67
2018-05-04T15:54:35.109Z,2.67
2018-05-04T15:57:05.387Z,2.50
2018-05-04T15:59:56.941Z,2.40
2018-05-04T16:02:24.557Z,2.30
2018-05-04T16:04:52.192Z,2.50
2018-05-04T16:07:19.783Z,3.17
2018-05-04T16:09:47.384Z,2.80
2018-05-04T16:12:15.729Z,2.67
2018-05-04T16:14:43.376Z,2.60
2018-05-04T16:17:11.080Z,2.40
2018-05-04T16:19:38.785Z,2.77
2018-05-04T16:22:06.518Z,3.23
2018-05-04T16:24:35.010Z,2.57
2018-05-04T16:27:02.930Z,2.45
2018-05-04T16:29:30.530Z,2.60
2018-05-04T16:31:58.200Z,2.37
2018-05-04T16:34:25.852Z,2.40
2018-05-04T16:36:53.541Z,2.50
2018-05-04T16:39:21.176Z,2.40
2018-05-04T16:41:54.160Z,2.57
2018-05-04T16:44:21.828Z,2.17
2018-05-04T16:46:55.207Z,2.60
2018-05-04T16:49:25.609Z,2.30
2018-05-04T16:51:53.271Z,2.57
2018-05-04T16:54:20.949Z,2.67
2018-05-04T16:56:49.298Z,2.40
2018-05-04T16:59:17.054Z,2.60
2018-05-04T17:01:44.643Z,2.57
2018-05-04T17:04:12.228Z,2.63
2018-05-04T17:06:39.856Z,2.17
2018-05-04T17:09:08.320Z,2.20
2018-05-04T17:11:35.955Z,2.50
2018-05-04T17:14:03.602Z,2.23
2018-05-04T17:16:31.187Z,2.40
2018-05-04T17:18:58.805Z,2.20
2018-05-04T17:21:26.578Z,2.27
2018-05-04T17:23:55.338Z,2.27
2018-05-04T17:26:23.711Z,2.40
2018-05-04T17:28:51.315Z,2.63
2018-05-04T17:31:20.099Z,2.50
2018-05-04T17:33:47.720Z,2.20
2018-05-04T17:36:16.323Z,2.90
2018-05-04T17:38:44.001Z,2.50
2018-05-04T17:41:12.418Z,2.50
2018-05-04T17:43:40.620Z,2.30
2018-05-04T17:46:08.290Z,2.67
2018-05-04T17:48:36.194Z,2.57
2018-05-04T17:51:03.811Z,2.70
2018-05-04T17:53:31.410Z,3.00
2018-05-04T17:55:59.206Z,2.43
2018-05-04T17:58:26.796Z,2.30
2018-05-04T18:00:54.452Z,2.30
2018-05-04T18:03:22.156Z,2.30
2018-05-04T18:05:49.724Z,2.37
2018-05-04T18:08:17.970Z,2.20
2018-05-04T18:10:45.971Z,2.23
2018-05-04T18:13:13.747Z,1.90
2018-05-04T18:15:41.328Z,2.30
2018-05-04T18:18:08.991Z,2.30
2018-05-04T18:20:36.787Z,2.20
2018-05-04T18:23:21.680Z,1.90
2018-05-04T18:25:50.249Z,2.10
2018-05-04T18:28:18.336Z,2.10
2018-05-04T18:30:45.995Z,2.37
2018-05-04T18:33:14.527Z,2.23
2018-05-04T18:35:42.238Z,2.67
2018-05-04T18:38:09.933Z,1.90
2018-05-04T18:40:37.592Z,2.20
2018-05-04T18:43:05.186Z,2.27
2018-05-04T18:45:32.816Z,2.30
2018-05-04T18:48:00.671Z,2.07
2018-05-04T18:50:28.260Z,2.30
2018-05-04T18:52:55.889Z,2.45
2018-05-04T18:55:23.683Z,2.20
2018-05-04T18:57:51.280Z,2.30
2018-05-04T19:00:18.946Z,2.00
2018-05-04T19:02:52.165Z,2.70
2018-05-04T19:05:19.767Z,2.30
2018-05-04T19:07:47.437Z,3.20
2018-05-04T19:10:15.829Z,2.60
2018-05-04T19:12:43.493Z,2.37
2018-05-04T19:15:12.623Z,2.20
2018-05-04T19:17:43.047Z,2.67
2018-05-04T19:20:11.453Z,2.33
2018-05-04T19:22:39.075Z,2.50
2018-05-04T19:25:07.762Z,2.30
2018-05-04T19:27:35.407Z,2.27
2018-05-04T19:30:03.040Z,2.47
2018-05-04T19:32:30.608Z,2.70
2018-05-04T19:34:58.335Z,2.87
2018-05-04T19:37:26.731Z,3.10
2018-05-04T19:39:55.243Z,3.17
2018-05-04T19:42:22.776Z,2.67
2018-05-04T19:44:52.083Z,2.50
2018-05-04T19:47:19.692Z,2.67
2018-05-04T19:49:48.812Z,3.40
2018-05-04T19:52:17.190Z,3.37
2018-05-04T19:54:56.981Z,2.70
2018-05-04T19:57:24.579Z,2.58
2018-05-04T19:59:53.701Z,3.03
2018-05-04T20:02:22.071Z,2.80
2018-05-04T20:04:51.366Z,3.00
2018-05-04T20:07:19.743Z,2.83
2018-05-04T20:09:47.339Z,3.00
2018-05-04T20:12:14.904Z,3.20
2018-05-04T20:14:42.510Z,2.77
2018-05-04T20:17:10.134Z,3.40
2018-05-04T20:19:37.796Z,2.87
2018-05-04T20:22:05.410Z,3.07
2018-05-04T20:24:33.777Z,2.97
2018-05-04T20:27:01.422Z,2.67
2018-05-04T20:29:29.288Z,2.93
2018-05-04T20:31:56.914Z,2.97
2018-05-04T20:34:24.519Z,3.00
2018-05-04T20:36:52.154Z,3.20
2018-05-04T20:39:19.799Z,2.70
2018-05-04T20:41:47.370Z,2.97
2018-05-04T20:44:14.981Z,2.70
2018-05-04T20:46:42.611Z,2.87
2018-05-04T20:49:11.488Z,2.83
2018-05-04T20:51:39.125Z,2.47
2018-05-04T20:54:06.737Z,2.77
2018-05-04T20:56:35.339Z,2.83
2018-05-04T20:59:04.586Z,2.87
2018-05-04T21:01:32.226Z,3.03
2018-05-04T21:03:59.808Z,2.93
2018-05-04T21:06:27.440Z,2.83
2018-05-04T21:08:55.079Z,2.60
2018-05-04T21:11:23.505Z,2.67
2018-05-04T21:13:51.200Z,2.60
2018-05-04T21:16:18.783Z,2.70
2018-05-04T21:18:46.698Z,2.43
2018-05-04T21:21:14.342Z,2.90
2018-05-04T21:23:41.971Z,2.70
2018-05-04T21:26:09.575Z,2.77
2018-05-04T21:28:37.175Z,2.70
2018-05-04T21:31:04.774Z,2.40
2018-05-04T21:33:33.060Z,2.90
2018-05-04T21:36:01.396Z,2.77
2018-05-04T21:38:28.952Z,3.00
2018-05-04T21:40:56.477Z,2.77
2018-05-04T21:43:24.004Z,2.50
2018-05-04T21:45:53.307Z,2.50
2018-05-04T21:48:22.616Z,2.73
2018-05-04T21:50:51.017Z,2.70
2018-05-04T21:53:18.617Z,2.60
2018-05-04T21:55:46.166Z,2.50
2018-05-04T21:58:13.725Z,2.53
2018-05-04T22:00:41.284Z,2.50
2018-05-04T22:03:08.795Z,2.90
2018-05-04T22:05:37.084Z,2.70
2018-05-04T22:08:04.637Z,2.50
2018-05-04T22:10:32.952Z,2.50
2018-05-04T22:13:00.471Z,2.37
2018-05-04T22:15:28.122Z,2.63
2018-05-04T22:17:56.520Z,3.37
2018-05-04T22:20:24.231Z,3.10
2018-05-04T22:22:52.072Z,3.10
2018-05-04T22:25:19.719Z,3.30
2018-05-04T22:27:47.353Z,2.77
2018-05-04T22:30:15.709Z,3.27
2018-05-04T22:32:43.317Z,3.20
2018-05-04T22:35:10.961Z,3.00
2018-05-04T22:37:38.599Z,3.50
2018-05-04T22:40:07.030Z,3.00
2018-05-04T22:42:34.693Z,3.37
2018-05-04T22:45:02.458Z,2.93
2018-05-04T22:47:30.038Z,3.20
2018-05-04T22:49:57.672Z,2.90
2018-05-04T22:52:25.290Z,2.80
2018-05-04T22:54:53.643Z,2.93
2018-05-04T22:57:21.229Z,2.60
2018-05-04T22:59:49.593Z,2.73
2018-05-04T23:02:17.254Z,2.67
2018-05-04T23:04:44.824Z,2.50
2018-05-04T23:07:13.261Z,3.05
2018-05-04T23:09:40.894Z,2.90
2018-05-04T23:12:08.505Z,2.90
2018-05-04T23:14:36.116Z,2.40
2018-05-04T23:17:03.757Z,2.90
2018-05-04T23:19:32.186Z,2.53
2018-05-04T23:21:59.808Z,2.90
2018-05-04T23:24:27.420Z,2.80
2018-05-04T23:27:04.994Z,2.70
2018-05-04T23:29:32.568Z,3.00
2018-05-04T23:32:00.142Z,2.70
2018-05-04T23:34:27.842Z,3.00
2018-05-04T23:36:55.376Z,3.17
2018-05-04T23:39:22.984Z,2.80
2018-05-04T23:41:50.560Z,2.70
2018-05-04T23:44:18.150Z,3.00
2018-05-04T23:46:45.758Z,2.90
2018-05-04T23:49:13.394Z,2.87
2018-05-04T23:51:41.764Z,3.00
2018-05-04T23:54:10.109Z,2.70
2018-05-04T23:56:37.721Z,2.87
2018-05-04T23:59:06.052Z,2.90
